• Join FlightAware (Why Join?)
  • Login
  • US Flag 
01:17PM EDT


 

Airport Tracker/Info


-or-


 

Live Flight TrackerFlight Track Log ✈ DAL268 ✈ 09-May-2013 ✈ KJFK - LLBG / TLV

Flight Track Log - Related Links

Times and Time Zones

All times are in EDT time to prevent confusion due to time zone crossing. See the DAL268 flight status page for this flight to view local times or setup timezone preferences in your user account.

Time Position Orientation Groundspeed Altitude Reporting Facility
EDT Latitude Longitude Course Direction KTS MPH feet Rate Location/Type
11:48PM 40.6130 -73.7900 209° Southwest 178 205 400  Level FlightAware
11:49PM 40.5900 -73.8070 209° Southwest 185 213 1,400 1,500 Climbing FlightAware
11:49PM 40.5670 -73.8230 208° Southwest 225 259 1,900 1,200 Climbing FlightAware
11:49PM 40.5550 -73.8270 194° South 237 273 2,200 1,560 Climbing FlightAware
11:49PM 40.5510 -73.8270 180° South 239 275 2,300 1,560 Climbing FlightAware
11:50PM 40.5220 -73.8170 165° South 258 297 3,000 1,320 Climbing FlightAware
11:50PM 40.5080 -73.8030 143° Southeast 274 315 3,200 780 Climbing FlightAware
11:50PM 40.4990 -73.7780 115° Southeast 289 333 3,400 1,620 Climbing FlightAware
11:51PM 40.4970 -73.7360 94° East 296 341 4,300 2,280 Climbing FlightAware
11:51PM 40.5015 -73.7020 80° East 303 349 5,000 2,580 Climbing FlightAware ADS-B
11:51PM 40.5044 -73.6785 81° East 302 348 5,600 2,760 Climbing FlightAware ADS-B
11:52PM 40.5063 -73.6507 85° East 307 353 6,300 2,460 Climbing FlightAware ADS-B
11:52PM 40.5080 -73.6204 86° East 312 359 6,900 2,460 Climbing FlightAware ADS-B
11:52PM 40.5099 -73.5908 85° East 311 358 7,600 2,460 Climbing FlightAware ADS-B
11:52PM 40.5119 -73.5606 85° East 316 364 8,200 2,100 Climbing FlightAware ADS-B
11:53PM 40.5141 -73.5316 84° East 321 369 8,700 2,400 Climbing FlightAware ADS-B
11:53PM 40.5162 -73.4991 85° East 323 372 9,500 1,980 Climbing FlightAware ADS-B
11:53PM 40.5209 -73.4247 85° East 344 396 10,500 1,320 Climbing FlightAware ADS-B
11:54PM 40.5254 -73.3612 85° East 372 428 11,000 960 Climbing FlightAware ADS-B
11:54PM 40.5306 -73.2894 85° East 402 463 11,500 1,140 Climbing FlightAware ADS-B
11:55PM 40.5358 -73.2133 85° East 420 483 12,200 1,800 Climbing FlightAware ADS-B
11:56PM 40.5420 -73.1312 84° East 427 491 13,400 2,160 Climbing FlightAware ADS-B
11:56PM 40.5477 -73.0472 85° East 434 499 14,600 2,100 Climbing FlightAware ADS-B
11:57PM 40.5607 -72.9705 77° East 437 503 15,600 1,920 Climbing FlightAware ADS-B
11:57PM 40.5804 -72.8909 72° East 441 507 16,600 1,860 Climbing FlightAware ADS-B
11:58PM 40.6018 -72.8080 71° East 448 516 17,600 1,860 Climbing FlightAware ADS-B
11:58PM 40.6227 -72.7269 71° East 453 521 18,600 1,680 Climbing FlightAware ADS-B
11:59PM 40.6460 -72.6380 71° East 460 529 19,500 1,560 Climbing FlightAware
11:59PM 40.6559 -72.5982 72° East 464 534 19,900 1,560 Climbing FlightAware ADS-B
11:59PM 40.6750 -72.5230 71° East 466 536 20,700 1,680 Climbing FlightAware
12:00AM 40.6816 -72.5027 67° East 466 536 20,900 2,040 Climbing FlightAware ADS-B
12:00AM 40.7001 -72.4550 63° Northeast 466 536 21,500 1,680 Climbing FlightAware ADS-B
12:00AM 40.7151 -72.4235 58° Northeast 466 536 21,800 1,440 Climbing FlightAware ADS-B
12:01AM 40.7558 -72.3513 53° Northeast 469 540 22,600 1,380 Climbing FlightAware ADS-B
12:01AM 40.7965 -72.2797 53° Northeast 474 545 23,300 1,320 Climbing FlightAware ADS-B
12:02AM 40.8370 -72.2089 53° Northeast 479 551 24,000 1,320 Climbing FlightAware ADS-B
12:02AM 40.8771 -72.1384 53° Northeast 482 555 24,700 1,320 Climbing FlightAware ADS-B
12:03AM 40.9190 -72.0648 53° Northeast 486 559 25,400 1,200 Climbing FlightAware ADS-B
12:03AM 40.9650 -71.9837 53° Northeast 492 566 26,000 1,020 Climbing FlightAware ADS-B
12:04AM 41.0128 -71.8991 53° Northeast 497 572 26,600 480 Climbing FlightAware ADS-B
12:05AM 41.0610 -71.8150 53° Northeast 496 571 26,700 1,140 Climbing FlightAware
12:05AM 41.1320 -71.6880 53° Northeast 498 573 28,400 1,860 Climbing FlightAware
12:06AM 41.1850 -71.5930 53° Northeast 493 567 29,400 1,260 Climbing FlightAware
12:07AM 41.2470 -71.4820 53° Northeast 495 570 30,200 1,020 Climbing FlightAware
12:07AM 41.2970 -71.3920 53° Northeast 492 566 30,900 480 Climbing FlightAware
12:08AM 41.3600 -71.2780 54° Northeast 490 564 30,900  Level FlightAware
12:09AM 41.4150 -71.1790 53° Northeast 489 563 30,900  Level FlightAware
12:09AM 41.4690 -71.0810 54° Northeast 491 565 30,900  Level FlightAware
12:10AM 41.5300 -70.9700 54° Northeast 495 570 30,900  Level FlightAware
12:11AM 41.5830 -70.8730 54° Northeast 499 574 30,900  Level FlightAware
12:12AM 41.6380 -70.7730 54° Northeast 498 573 30,900  Level FlightAware
12:12AM 41.6870 -70.6820 54° Northeast 501 577 30,900 60 Level FlightAware
12:13AM 41.7380 -70.5880 54° Northeast 503 579 31,000  Climbing FlightAware
12:14AM 41.8170 -70.4400 54° Northeast 31,000 -120 Level FlightAware
12:14AM 41.8720 -70.3370 54° Northeast 508 585 30,900 -120 Descending FlightAware
12:15AM 41.9120 -70.2630 54° Northeast 510 587 30,900  Level FlightAware
12:16AM 41.9720 -70.1500 54° Northeast 511 588 30,900  Level FlightAware
12:16AM 42.0400 -70.0220 54° Northeast 512 589 30,900  Level FlightAware
12:17AM 42.0960 -69.9160 55° Northeast 513 590 30,900  Level FlightAware
12:18AM 42.1580 -69.7980 55° Northeast 515 593 30,900  Level FlightAware
12:18AM 42.2140 -69.6910 55° Northeast 515 593 30,900  Level FlightAware
12:19AM 42.2690 -69.5860 55° Northeast 516 594 30,900 60 Level FlightAware
12:20AM 42.3310 -69.4660 55° Northeast 518 596 31,000  Climbing FlightAware
12:21AM 42.3870 -69.3570 55° Northeast 520 598 30,900 -120 Descending FlightAware
12:21AM 42.4480 -69.2400 55° Northeast 523 602 30,900  Level FlightAware
12:22AM 42.5060 -69.1270 55° Northeast 525 604 30,900  Level FlightAware
12:23AM 42.5520 -69.0370 55° Northeast 526 605 30,900  Level FlightAware
12:23AM 42.6240 -68.8960 55° Northeast 532 612 30,900  Level FlightAware
12:24AM 42.6680 -68.8100 55° Northeast 535 616 30,900  Level FlightAware
12:25AM 42.7640 -68.6180 56° Northeast 542 624 30,900  Level FlightAware
12:26AM 42.8420 -68.4640 55° Northeast 544 626 30,900  Level FlightAware
12:27AM 42.9000 -68.3490 55° Northeast 545 627 30,900  Level FlightAware
12:27AM 42.9450 -68.2590 56° Northeast 546 628 30,900  Level FlightAware
12:28AM 43.0190 -68.1090 56° Northeast 548 631 30,900  Level FlightAware
12:29AM 43.0640 -68.0180 56° Northeast 548 631 30,900  Level FlightAware
12:29AM 43.1240 -67.8960 56° Northeast 548 631 30,900  Level FlightAware
12:34AM 43.5500 -67.0220 56° Northeast 543 625 30,900  Level FlightAware
12:39AM 44.0220 -66.2560 49° Northeast 547 629 30,900  Level FlightAware
12:42AM 44.2630 -65.8600 50° Northeast 556 640 30,900  Level FlightAware
12:43AM 44.4000 -65.6330 50° Northeast 552 635 30,900  Level FlightAware
12:44AM 44.4670 -65.5220 50° Northeast 552 635 30,900  Level FlightAware
12:44AM 44.5330 -65.4120 50° Northeast 551 634 30,900  Level FlightAware
12:45AM 44.6080 -65.2850 50° Northeast 551 634 30,900  Level FlightAware
12:46AM 44.6730 -65.1750 50° Northeast 550 633 30,900  Level FlightAware
12:46AM 44.7430 -65.0550 51° Northeast 551 634 30,900 60 Level FlightAware
12:47AM 44.8090 -64.9440 50° Northeast 551 634 31,000  Climbing FlightAware
12:48AM 44.8830 -64.8160 51° Northeast 552 635 30,900 -120 Descending FlightAware
12:49AM 44.9480 -64.7050 50° Northeast 550 633 30,900  Level FlightAware
12:49AM 45.0120 -64.5940 51° Northeast 548 631 30,900  Level FlightAware
12:50AM 45.0820 -64.4720 51° Northeast 547 629 30,900  Level FlightAware
12:51AM 45.1460 -64.3620 50° Northeast 545 627 30,900  Level FlightAware
12:51AM 45.2110 -64.2480 51° Northeast 541 623 30,900  Level FlightAware
12:52AM 45.2800 -64.1270 51° Northeast 538 619 30,900  Level FlightAware
12:53AM 45.3440 -64.0140 51° Northeast 539 620 30,900  Level FlightAware
12:53AM 45.3960 -63.9230 51° Northeast 540 621 30,900  Level FlightAware
12:54AM 45.4620 -63.8060 51° Northeast 540 621 30,900  Level FlightAware
12:55AM 45.5160 -63.7110 51° Northeast 540 621 30,900  Level FlightAware
12:55AM 45.5690 -63.6170 51° Northeast 540 621 30,900  Level FlightAware
12:56AM 45.6360 -63.4990 51° Northeast 540 621 30,900  Level FlightAware
12:57AM 45.6900 -63.4050 51° Northeast 540 621 30,900  Level FlightAware
12:58AM 45.7430 -63.3100 51° Northeast 540 621 30,900  Level FlightAware
12:58AM 45.8700 -63.0700 53° Northeast 535 616 30,900  Level FlightAware
12:59AM 45.9180 -62.9820 52° Northeast 535 616 30,900  Level FlightAware
01:00AM 45.9830 -62.8620 52° Northeast 535 616 30,900  Level FlightAware
01:00AM 46.0350 -62.7670 52° Northeast 535 616 30,900  Level FlightAware
01:01AM 46.1190 -62.6120 52° Northeast 525 604 30,900  Level FlightAware
01:02AM 46.1890 -62.4830 52° Northeast 528 608 30,900  Level FlightAware
01:02AM 46.2400 -62.3860 53° Northeast 528 608 30,900  Level FlightAware
01:03AM 46.3150 -62.2470 52° Northeast 529 609 30,900  Level FlightAware
01:04AM 46.3750 -62.1350 52° Northeast 528 608 30,900  Level FlightAware
01:05AM 46.4400 -62.0100 53° Northeast 528 608 30,900  Level FlightAware
01:05AM 46.5010 -61.8950 52° Northeast 528 608 30,900  Level FlightAware
01:06AM 46.5620 -61.7800 52° Northeast 527 606 30,900  Level FlightAware
01:07AM 46.6200 -61.6680 53° Northeast 524 603 30,900  Level FlightAware
01:07AM 46.6840 -61.5450 53° Northeast 523 602 30,900  Level FlightAware
01:08AM 46.7430 -61.4320 53° Northeast 524 603 30,900  Level FlightAware
01:09AM 46.8310 -61.2610 53° Northeast 525 604 30,900  Level FlightAware
01:10AM 46.8890 -61.1490 53° Northeast 526 605 30,900  Level FlightAware
01:11AM 46.9560 -61.0180 53° Northeast 525 604 30,900  Level FlightAware
01:11AM 47.0140 -60.9030 53° Northeast 526 605 30,900  Level FlightAware
01:12AM 47.0730 -60.7870 53° Northeast 528 608 30,900  Level FlightAware
01:12AM 47.1170 -60.7000 53° Northeast 529 609 30,900  Level FlightAware
01:13AM 47.1790 -60.5800 53° Northeast 529 609 30,900  Level FlightAware
01:14AM 47.2610 -60.4130 54° Northeast 531 611 30,900  Level FlightAware
01:15AM 47.3210 -60.2940 53° Northeast 534 615 30,900  Level FlightAware
01:15AM 47.3760 -60.1830 54° Northeast 535 616 30,900  Level FlightAware
01:16AM 47.4630 -60.0100 53° Northeast 535 616 30,900  Level FlightAware
01:17AM 47.5130 -59.9100 53° Northeast 535 616 30,900  Level FlightAware
01:18AM 47.5640 -59.8110 53° Northeast 535 616 30,900  Level FlightAware
01:18AM 47.6140 -59.7110 53° Northeast 535 616 30,900  Level FlightAware
01:19AM 47.6650 -59.6110 53° Northeast 535 616 30,900  Level FlightAware
01:20AM 47.7160 -59.5110 53° Northeast 535 616 30,900  Level FlightAware
01:21AM 47.8300 -59.2530 57° Northeast 537 618 30,900  Level FlightAware
01:21AM 47.9070 -59.0930 54° Northeast 537 618 30,900  Level FlightAware
01:22AM 47.9910 -58.9150 55° Northeast 533 613 30,900  Level FlightAware
01:23AM 48.0430 -58.8050 55° Northeast 533 613 30,900  Level FlightAware
01:24AM 48.1290 -58.6210 55° Northeast 529 609 30,900  Level FlightAware
01:25AM 48.1930 -58.4860 55° Northeast 528 608 30,900  Level FlightAware
01:25AM 48.2490 -58.3650 55° Northeast 528 608 30,900  Level FlightAware
01:26AM 48.3050 -58.2450 55° Northeast 528 608 30,900 60 Level FlightAware
01:27AM 48.3560 -58.1340 55° Northeast 531 611 31,000 540 Climbing FlightAware
01:28AM 48.4200 -57.9820 58° Northeast 533 613 31,700 960 Climbing FlightAware
01:28AM 48.4750 -57.8410 59° Northeast 531 611 32,500 840 Climbing FlightAware
01:29AM 48.5200 -57.7230 60° Northeast 531 611 32,900 300 Climbing FlightAware
01:30AM 48.5710 -57.5850 61° Northeast 529 609 32,900  Level FlightAware
01:30AM 48.6160 -57.4620 61° Northeast 527 606 32,900  Level FlightAware
01:31AM 48.6720 -57.3090 61° Northeast 526 605 32,900  Level FlightAware
01:32AM 48.7190 -57.1810 61° Northeast 527 606 32,900  Level FlightAware
01:32AM 48.7720 -57.0350 61° Northeast 530 610 32,900  Level FlightAware
01:33AM 48.8190 -56.9050 61° Northeast 532 612 32,900  Level FlightAware
01:34AM 48.8730 -56.7550 61° Northeast 534 615 32,900  Level FlightAware
01:35AM 48.9200 -56.6230 62° Northeast 537 618 32,900  Level FlightAware
01:35AM 48.9730 -56.4750 61° Northeast 538 619 32,900  Level FlightAware
01:36AM 49.0200 -56.3430 61° Northeast 541 623 32,900  Level FlightAware
01:37AM 49.0690 -56.2050 62° Northeast 542 624 32,900  Level FlightAware
01:37AM 49.1220 -56.0540 62° Northeast 541 623 32,900  Level FlightAware
01:38AM 49.1690 -55.9190 62° Northeast 541 623 32,900  Level FlightAware
01:39AM 49.2220 -55.7660 62° Northeast 542 624 32,900  Level FlightAware
01:39AM 49.2680 -55.6330 62° Northeast 543 625 32,900  Level FlightAware
01:40AM 49.3150 -55.4940 63° Northeast 544 626 32,900  Level FlightAware
01:41AM 49.3680 -55.3400 62° Northeast 546 628 32,900  Level FlightAware
01:42AM 49.4140 -55.2020 63° Northeast 545 627 32,900  Level FlightAware
01:42AM 49.4600 -55.0670 62° Northeast 546 628 32,900  Level FlightAware
01:43AM 49.5120 -54.9100 63° Northeast 546 628 32,900  Level FlightAware
01:44AM 49.5580 -54.7720 63° Northeast 546 628 32,900  Level FlightAware
01:44AM 49.6100 -54.6160 63° Northeast 545 627 32,900  Level FlightAware
01:45AM 49.6550 -54.4800 63° Northeast 544 626 32,900  Level FlightAware
01:46AM 49.7010 -54.3390 63° Northeast 544 626 32,900  Level FlightAware
01:46AM 49.7510 -54.1860 63° Northeast 544 626 32,900  Level FlightAware
01:47AM 49.7950 -54.0500 63° Northeast 544 626 32,900  Level FlightAware
01:48AM 49.8400 -53.9090 64° Northeast 543 625 32,900  Level FlightAware
01:49AM 49.8910 -53.7490 64° Northeast 542 624 32,900  Level FlightAware
01:49AM 49.9360 -53.6100 63° Northeast 542 624 32,900  Level FlightAware
01:50AM 49.9850 -53.4530 64° Northeast 541 623 32,900  Level FlightAware
01:51AM 50.0290 -53.3120 64° Northeast 542 624 32,900  Level FlightAware
01:51AM 50.0790 -53.1540 64° Northeast 542 624 32,900  Level FlightAware
01:52AM 50.1220 -53.0150 64° Northeast 541 623 32,900  Level FlightAware
01:53AM 50.1700 -52.8570 65° Northeast 542 624 32,900  Level FlightAware
01:53AM 50.2080 -52.7320 65° Northeast 543 625 32,900  Level FlightAware
01:54AM 50.2470 -52.6060 64° Northeast 544 626 32,900  Level FlightAware
01:55AM 50.3180 -52.3760 64° Northeast 544 626 32,900  Level FlightAware
01:56AM 50.3550 -52.2550 64° Northeast 544 626 32,900  Level FlightAware
01:56AM 50.3930 -52.1350 64° Northeast 544 626 32,900  Level FlightAware
01:57AM 50.4300 -52.0140 64° Northeast 544 626 32,900  Level FlightAware
01:58AM 50.4680 -51.8930 64° Northeast 544 626 32,900  Level FlightAware
01:58AM 50.5050 -51.7720 64° Northeast 544 626 32,900  Level FlightAware
01:59AM 50.5520 -51.6210 64° Northeast 544 626 32,900  Level FlightAware
02:00AM 50.5800 -51.5300 64° Northeast 544 626 32,900  Level FlightAware
02:00AM 50.6180 -51.4090 64° Northeast 544 626 32,900  Level FlightAware
02:01AM 50.6640 -51.2580 64° Northeast 544 626 32,900  Level FlightAware
02:02AM 50.7020 -51.1360 64° Northeast 544 626 32,900  Level FlightAware
02:03AM 50.7390 -51.0150 64° Northeast 544 626 32,900  Level FlightAware
02:03AM 50.7770 -50.8930 64° Northeast 544 626 32,900  Level FlightAware
02:04AM 50.8140 -50.7710 64° Northeast 544 626 32,900  Level FlightAware
02:04AM 50.8833 -50.2833 64° Northeast 540 621 32,900  Level Gander Center
02:05AM 50.9500 -50.0500 66° East 550 633 32,900 60 Level Gander Center
02:06AM 51.0000 -50.0000 77° East 553 636 33,000  Climbing ETMS Enhanced Traffic Management System
02:06AM 51.0167 -49.8167 77° East 540 621 32,900  Descending Gander Center
02:06AM 51.0000 -50.0000 77° East 553 636 33,000  Climbing ETMS Enhanced Traffic Management System
02:07AM 51.0333 -49.7000 77° East 540 621 32,900 -120 Descending Moncton Center
02:07AM 51.0333 -49.6000 90° East 540 621 32,900  Level Gander Center
02:10AM 51.0836 -49.2512 77° East  Level FlightAware Approximate
02:17AM 51.2952 -47.6836 77° East  Level FlightAware Approximate
02:18AM 51.3238 -47.4585 78° East  Level FlightAware Approximate
02:19AM 51.3518 -47.2331 79° East  Level FlightAware Approximate
02:20AM 51.3795 -47.0074 79° East  Level FlightAware Approximate
02:21AM 51.4067 -46.7815 79° East  Level FlightAware Approximate
02:22AM 51.4335 -46.5553 79° East  Level FlightAware Approximate
02:23AM 51.4599 -46.3289 79° East  Level FlightAware Approximate
02:24AM 51.4858 -46.1022 80° East  Level FlightAware Approximate
02:25AM 51.5113 -45.8752 80° East  Level FlightAware Approximate
02:26AM 51.5363 -45.6480 80° East  Level FlightAware Approximate
02:27AM 51.5609 -45.4205 80° East  Level FlightAware Approximate
02:28AM 51.5851 -45.1928 80° East  Level FlightAware Approximate
02:29AM 51.6086 -44.9645 81° East  Level FlightAware Approximate
02:30AM 51.6314 -44.7362 81° East  Level FlightAware Approximate
02:31AM 51.6537 -44.5076 81° East  Level FlightAware Approximate
02:32AM 51.6756 -44.2789 81° East  Level FlightAware Approximate
02:33AM 51.6970 -44.0499 81° East  Level FlightAware Approximate
02:34AM 51.7180 -43.8207 82° East  Level FlightAware Approximate
02:35AM 51.7386 -43.5913 82° East  Level FlightAware Approximate
02:36AM 51.7587 -43.3617 82° East  Level FlightAware Approximate
02:37AM 51.7783 -43.1318 82° East  Level FlightAware Approximate
02:38AM 51.7975 -42.9018 82° East  Level FlightAware Approximate
02:39AM 51.8162 -42.6716 82° East  Level FlightAware Approximate
02:40AM 51.8345 -42.4412 83° East  Level FlightAware Approximate
02:41AM 51.8524 -42.2106 83° East  Level FlightAware Approximate
02:42AM 51.8698 -41.9799 83° East  Level FlightAware Approximate
02:43AM 51.8867 -41.7489 83° East  Level FlightAware Approximate
02:44AM 51.9032 -41.5178 83° East  Level FlightAware Approximate
02:45AM 51.9193 -41.2865 83° East  Level FlightAware Approximate
02:46AM 51.9348 -41.0550 84° East  Level FlightAware Approximate
02:47AM 51.9500 -40.8234 84° East  Level FlightAware Approximate
02:48AM 51.9646 -40.5917 84° East  Level FlightAware Approximate
02:49AM 51.9789 -40.3598 84° East  Level FlightAware Approximate
02:50AM 51.9926 -40.1277 84° East  Level FlightAware Approximate
02:50AM 52.0000 -40.0000 95° East 527 606 33,000  Level ETMS Enhanced Traffic Management System
02:51AM 51.9940 -39.8955 95° East  Level FlightAware Approximate
02:52AM 51.9804 -39.6634 95° East  Level FlightAware Approximate
02:53AM 51.9663 -39.4315 96° East  Level FlightAware Approximate
02:54AM 51.9517 -39.1997 96° East  Level FlightAware Approximate
02:55AM 51.9367 -38.9681 96° East  Level FlightAware Approximate
02:56AM 51.8789 -38.1090 97° East 527 606 33,000  Level FlightAware Transoceanic
02:57AM 51.8616 -37.8734 97° East 527 606 33,000  Level FlightAware Transoceanic
02:58AM 51.8439 -37.6379 97° East 527 606 33,000  Level FlightAware Transoceanic
02:59AM 51.8257 -37.4027 97° East 527 606 33,000  Level FlightAware Transoceanic
03:00AM 51.8070 -37.1676 97° East 527 606 33,000  Level FlightAware Transoceanic
03:01AM 51.7879 -36.9327 98° East 527 606 33,000  Level FlightAware Transoceanic
03:01AM 51.0000 -50.0000 77° East 553 636 33,000  Level ETMS Enhanced Traffic Management System
03:02AM 51.7683 -36.6981 98° East 527 606 33,000  Level FlightAware Transoceanic
03:03AM 51.7482 -36.4636 98° East 527 606 33,000  Level FlightAware Transoceanic
03:04AM 51.7276 -36.2294 98° East 527 606 33,000  Level FlightAware Transoceanic
03:05AM 51.7066 -35.9953 98° East 527 606 33,000  Level FlightAware Transoceanic
03:06AM 51.6852 -35.7615 99° East 527 606 33,000  Level FlightAware Transoceanic
03:07AM 51.1846 -48.6603 77° East  Level FlightAware Approximate
03:08AM 51.2139 -48.4360 78° East  Level FlightAware Approximate
03:09AM 51.2428 -48.2114 78° East  Level FlightAware Approximate
03:10AM 51.2712 -47.9865 78° East  Level FlightAware Approximate
03:11AM 51.2992 -47.7613 79° East  Level FlightAware Approximate
03:12AM 51.3267 -47.5359 79° East  Level FlightAware Approximate
03:13AM 51.3539 -47.3102 79° East  Level FlightAware Approximate
03:14AM 51.3805 -47.0843 79° East  Level FlightAware Approximate
03:15AM 51.4068 -46.8581 79° East  Level FlightAware Approximate
03:16AM 51.4326 -46.6316 80° East  Level FlightAware Approximate
03:17AM 51.4580 -46.4048 80° East  Level FlightAware Approximate
03:18AM 51.4829 -46.1779 80° East  Level FlightAware Approximate
03:19AM 51.5074 -45.9506 80° East  Level FlightAware Approximate
03:20AM 51.5315 -45.7232 80° East  Level FlightAware Approximate
03:21AM 51.5551 -45.4954 80° East  Level FlightAware Approximate
03:22AM 51.5783 -45.2675 81° East  Level FlightAware Approximate
03:23AM 51.6011 -45.0393 81° East  Level FlightAware Approximate
03:24AM 51.6240 -44.8111 81° East  Level FlightAware Approximate
03:25AM 51.6465 -44.5826 81° East  Level FlightAware Approximate
03:26AM 51.6685 -44.3539 81° East  Level FlightAware Approximate
03:27AM 51.6901 -44.1250 81° East  Level FlightAware Approximate
03:28AM 51.7112 -43.8959 81° East  Level FlightAware Approximate
03:29AM 51.7319 -43.6665 82° East  Level FlightAware Approximate
03:30AM 51.7521 -43.4370 82° East  Level FlightAware Approximate
03:31AM 51.7719 -43.2072 82° East  Level FlightAware Approximate
03:32AM 51.7912 -42.9773 82° East  Level FlightAware Approximate
03:33AM 51.8101 -42.7471 82° East  Level FlightAware Approximate
03:34AM 51.8286 -42.5168 83° East  Level FlightAware Approximate
03:34AM 51.0000 -30.0000 95° East 538 619 33,000  Level ETMS Enhanced Traffic Management System
03:35AM 51.8466 -42.2862 83° East  Level FlightAware Approximate
03:36AM 51.8637 -42.0609 83° East  Level FlightAware Approximate
03:37AM 51.8804 -41.8354 83° East  Level FlightAware Approximate
03:38AM 51.8967 -41.6098 83° East  Level FlightAware Approximate
03:39AM 51.9125 -41.3840 83° East  Level FlightAware Approximate
03:40AM 51.9280 -41.1581 84° East  Level FlightAware Approximate
03:41AM 50.8445 -27.6392 97° East 538 619 33,000  Level FlightAware Transoceanic
03:42AM 50.8263 -27.4041 97° East 538 619 33,000  Level FlightAware Transoceanic
03:43AM 50.8077 -27.1691 97° East 538 619 33,000  Level FlightAware Transoceanic
03:44AM 50.7885 -26.9343 97° East 538 619 33,000  Level FlightAware Transoceanic
03:45AM 50.7690 -26.6997 98° East 538 619 33,000  Level FlightAware Transoceanic
03:46AM 50.7489 -26.4653 98° East 538 619 33,000  Level FlightAware Transoceanic
03:47AM 50.7284 -26.2311 98° East 538 619 33,000  Level FlightAware Transoceanic
03:48AM 50.7074 -25.9972 98° East 538 619 33,000  Level FlightAware Transoceanic
03:49AM 50.6859 -25.7634 98° East 538 619 33,000  Level FlightAware Transoceanic
03:50AM 50.6640 -25.5298 99° East 538 619 33,000  Level FlightAware Transoceanic
03:51AM 50.6416 -25.2965 99° East 538 619 33,000  Level FlightAware Transoceanic
03:52AM 50.6188 -25.0634 99° East 538 619 33,000  Level FlightAware Transoceanic
03:53AM 50.5955 -24.8305 99° East 538 619 33,000  Level FlightAware Transoceanic
03:54AM 50.5717 -24.5979 99° East 538 619 33,000  Level FlightAware Transoceanic
03:55AM 50.5474 -24.3655 99° East 538 619 33,000  Level FlightAware Transoceanic
03:56AM 50.5227 -24.1333 100° East 538 619 33,000  Level FlightAware Transoceanic
03:57AM 50.4975 -23.9014 100° East 538 619 33,000  Level FlightAware Transoceanic
03:58AM 50.4719 -23.6697 100° East 538 619 33,000  Level FlightAware Transoceanic
03:59AM 50.4458 -23.4383 100° East 538 619 33,000  Level FlightAware Transoceanic
04:00AM 50.4193 -23.2071 100° East 538 619 33,000  Level FlightAware Transoceanic
04:01AM 50.3923 -22.9762 100° East 538 619 33,000  Level FlightAware Transoceanic
04:02AM 50.3648 -22.7456 101° East 538 619 33,000  Level FlightAware Transoceanic
04:03AM 50.3369 -22.5152 101° East 538 619 33,000  Level FlightAware Transoceanic
04:04AM 50.3085 -22.2851 101° East 538 619 33,000  Level FlightAware Transoceanic
04:05AM 50.2797 -22.0553 101° East 538 619 33,000  Level FlightAware Transoceanic
04:06AM 50.2504 -21.8258 101° East 538 619 33,000  Level FlightAware Transoceanic
04:07AM 50.2207 -21.5965 102° East 538 619 33,000  Level FlightAware Transoceanic
04:08AM 50.1905 -21.3675 102° East 538 619 33,000  Level FlightAware Transoceanic
04:09AM 50.1599 -21.1389 102° East 538 619 33,000  Level FlightAware Transoceanic
04:10AM 50.1288 -20.9105 102° East 538 619 33,000  Level FlightAware Transoceanic
04:11AM 50.0973 -20.6824 102° East 538 619 33,000  Level FlightAware Transoceanic
04:12AM 50.0653 -20.4546 102° East 538 619 33,000  Level FlightAware Transoceanic
04:13AM 50.0329 -20.2272 103° East 538 619 33,000  Level FlightAware Transoceanic
04:14AM 50.0021 -20.0143 103° East  Level FlightAware Approximate
04:15AM 49.9709 -19.8017 103° East  Level FlightAware Approximate
04:16AM 49.9939 -19.8114 93° East  Level FlightAware Approximate
04:17AM 49.9865 -19.5936 93° East  Level FlightAware Approximate
04:18AM 49.9786 -19.3759 93° East  Level FlightAware Approximate
04:19AM 49.9703 -19.1583 93° East  Level FlightAware Approximate
04:20AM 49.9617 -18.9407 93° East  Level FlightAware Approximate
04:21AM 49.9526 -18.7232 94° East  Level FlightAware Approximate
04:22AM 49.9431 -18.5058 94° East  Level FlightAware Approximate
04:23AM 49.9332 -18.2885 94° East  Level FlightAware Approximate
04:24AM 49.9230 -18.0713 94° East  Level FlightAware Approximate
04:25AM 49.9123 -17.8542 94° East  Level FlightAware Approximate
04:26AM 49.9011 -17.6371 94° East  Level FlightAware Approximate
04:27AM 49.8896 -17.4202 95° East  Level FlightAware Approximate
04:28AM 49.8777 -17.2034 95° East  Level FlightAware Approximate
04:29AM 49.8654 -16.9867 95° East  Level FlightAware Approximate
04:30AM 49.8527 -16.7701 95° East  Level FlightAware Approximate
04:31AM 49.8396 -16.5536 95° East  Level FlightAware Approximate
04:32AM 49.8261 -16.3373 95° East  Level FlightAware Approximate
04:33AM 49.8121 -16.1210 96° East  Level FlightAware Approximate
04:34AM 49.7978 -15.9049 96° East  Level FlightAware Approximate
04:35AM 49.7831 -15.6889 96° East  Level FlightAware Approximate
04:36AM 49.7679 -15.4731 96° East  Level FlightAware Approximate
04:37AM 49.7524 -15.2574 96° East  Level FlightAware Approximate
04:38AM 49.7365 -15.0418 96° East  Level FlightAware Approximate
04:39AM 49.7205 -14.8263 96° East  Level FlightAware Approximate
04:40AM 49.7041 -14.6109 97° East  Level FlightAware Approximate
04:41AM 49.6874 -14.3957 97° East  Level FlightAware Approximate
04:42AM 49.6702 -14.1806 97° East  Level FlightAware Approximate
04:43AM 49.6527 -13.9657 97° East  Level FlightAware Approximate
04:44AM 49.6336 -13.7512 98° East  Level FlightAware Approximate
04:45AM 49.6140 -13.5369 98° East  Level FlightAware Approximate
04:46AM 49.5939 -13.3228 98° East  Level FlightAware Approximate
04:47AM 49.5735 -13.1088 98° East  Level FlightAware Approximate
04:48AM 49.5527 -12.8950 98° East  Level FlightAware Approximate
04:49AM 49.5316 -12.6814 98° East  Level FlightAware Approximate
04:50AM 49.5117 -12.4676 98° East  Level FlightAware Approximate
04:51AM 49.4914 -12.2540 98° East  Level FlightAware Approximate
04:52AM 49.4706 -12.0406 98° East  Level FlightAware Approximate
04:53AM 49.4495 -11.8273 99° East  Level FlightAware Approximate
04:54AM 49.4280 -11.6142 99° East  Level FlightAware Approximate
04:55AM 49.4061 -11.4013 99° East  Level FlightAware Approximate
04:56AM 49.3838 -11.1886 99° East  Level FlightAware Approximate
04:57AM 49.3611 -10.9761 99° East  Level FlightAware Approximate
04:58AM 49.3381 -10.7638 99° East  Level FlightAware Approximate
04:59AM 49.3146 -10.5517 100° East  Level FlightAware Approximate
05:00AM 49.2908 -10.3398 100° East  Level FlightAware Approximate
05:01AM 49.2666 -10.1281 100° East  Level FlightAware Approximate
05:02AM 49.2419 -9.9167 100° East  Level FlightAware Approximate
05:02AM 49.2410 -8.9845 100° East 494 568 33,400  Level FlightAware UK
05:02AM 49.2500 -9.0190 100° East 526 605 34,900  Climbing FlightAware
05:03AM 49.2271 -8.8980 100° East 490 564 33,400  Descending FlightAware UK
05:03AM 49.2280 -8.8890 104° East 526 605 34,900  Climbing FlightAware
05:03AM 49.2163 -8.8334 104° East 490 564 33,400 -6,000 Descending FlightAware UK
05:03AM 49.2090 -8.7903 104° East 490 564 33,400  Level FlightAware UK
05:04AM 49.1981 -8.7256 105° East 490 564 33,400 2,520 Level FlightAware UK
05:04AM 49.1970 -8.7060 105° East 526 605 34,900  Climbing FlightAware
05:04AM 49.1764 -8.5961 105° East 490 564 33,400 -2,460 Descending FlightAware UK
05:04AM 49.1653 -8.5313 105° East 492 566 33,400 4,260 Level FlightAware UK
05:04AM 49.1720 -8.5600 105° East 527 606 34,900  Climbing FlightAware
05:05AM 49.1542 -8.4666 105° East 490 564 33,400 -2,760 Descending FlightAware UK
05:05AM 49.1431 -8.4020 105° East 490 564 33,400 3,000 Level FlightAware UK
05:05AM 49.1450 -8.4010 105° East 525 604 34,900  Climbing FlightAware
05:06AM 49.1244 -8.2943 105° East 490 564 33,400 -2,520 Descending FlightAware UK
05:06AM 49.1132 -8.2297 105° East 488 562 33,400 4,080 Level FlightAware UK
05:06AM 49.1200 -8.2580 105° East 527 606 34,900  Climbing FlightAware
05:06AM 49.0983 -8.1434 105° East 490 564 33,400 -2,400 Descending FlightAware UK
05:07AM 49.0870 -8.0787 105° East 492 566 33,400 4,500 Level FlightAware UK
05:07AM 49.0940 -8.1110 105° East 528 608 34,900  Climbing FlightAware
05:07AM 49.0756 -8.0141 105° East 492 566 33,400 -2,700 Descending FlightAware UK
05:07AM 49.0640 -7.9488 105° East 492 566 33,400 3,060 Level FlightAware UK
05:07AM 49.0660 -7.9510 105° East 529 609 34,900  Climbing FlightAware
05:08AM 49.0448 -7.8411 105° East 492 566 33,400 -2,460 Descending FlightAware UK
05:08AM 49.0333 -7.7765 105° East 490 564 33,400 4,260 Level FlightAware UK
05:08AM 49.0400 -7.8090 105° East 528 608 34,900  Climbing FlightAware
05:08AM 49.0210 -7.7124 105° East 492 566 33,400 -2,760 Descending FlightAware UK
05:09AM 49.0046 -7.6504 112° Southeast 492 566 33,400 3,000 Level FlightAware UK
05:09AM 49.0030 -7.6500 112° Southeast 525 604 34,900  Climbing FlightAware
05:09AM 48.9778 -7.5476 112° Southeast 492 566 33,400 -2,520 Descending FlightAware UK
05:09AM 48.9612 -7.4864 113° Southeast 492 566 33,400 4,080 Level FlightAware UK
05:09AM 48.9660 -7.5120 113° Southeast 525 604 34,900  Climbing FlightAware
05:10AM 48.9385 -7.4048 113° Southeast 492 566 33,400 -2,400 Descending FlightAware UK
05:10AM 48.9214 -7.3439 113° Southeast 492 566 33,400 3,600 Level FlightAware UK
05:10AM 48.9230 -7.3580 113° Southeast 525 604 34,900  Climbing FlightAware
05:10AM 48.8984 -7.2628 113° Southeast 492 566 33,400 -2,580 Descending FlightAware UK
05:11AM 48.8811 -7.2022 113° Southeast 492 566 33,400 3,900 Level FlightAware UK
05:11AM 48.8840 -7.2210 113° Southeast 524 603 34,900  Climbing FlightAware
05:11AM 48.8580 -7.1213 113° Southeast 492 566 33,400 -2,460 Descending FlightAware UK
05:11AM 48.8404 -7.0608 114° Southeast 492 566 33,400 4,260 Level FlightAware UK
05:11AM 48.8470 -7.0910 114° Southeast 524 603 34,900  Climbing FlightAware
05:12AM 48.8228 -7.0003 114° Southeast 492 566 33,400 -2,760 Descending FlightAware UK
05:12AM 48.8051 -6.9399 114° Southeast 494 568 33,400 3,000 Level FlightAware UK
05:12AM 48.8030 -6.9390 114° Southeast 525 604 34,900  Climbing FlightAware
05:13AM 48.7755 -6.8386 114° Southeast 492 566 33,400 -2,520 Descending FlightAware UK
05:13AM 48.7579 -6.7782 114° Southeast 492 566 33,400 4,080 Level FlightAware UK
05:13AM 48.7660 -6.8130 114° Southeast 525 604 34,900  Climbing FlightAware
05:13AM 48.7343 -6.6977 114° Southeast 494 568 33,400  Descending FlightAware UK
05:13AM 48.7310 -6.6930 114° Southeast 525 604 34,900  Climbing FlightAware
05:14AM 48.7168 -6.6375 114° Southeast 494 568 33,400 -6,000 Descending FlightAware UK
05:14AM 48.7050 -6.5974 114° Southeast 496 571 33,400  Level FlightAware UK
05:14AM 48.6872 -6.5373 114° Southeast 496 571 33,400  Level FlightAware UK
05:14AM 48.6694 -6.4773 114° Southeast 494 568 33,400  Level FlightAware UK
05:15AM 48.6517 -6.4173 114° Southeast 494 568 33,400  Level FlightAware UK
05:15AM 48.6340 -6.3574 114° Southeast 494 568 33,400  Level FlightAware UK
05:15AM 48.6162 -6.2977 114° Southeast 494 568 33,400 2,700 Level FlightAware UK
05:15AM 48.6180 -6.3110 114° Southeast 522 601 34,900  Climbing FlightAware
05:16AM 48.5866 -6.1981 114° Southeast 492 566 33,400 -2,760 Descending FlightAware UK
05:16AM 48.5688 -6.1384 114° Southeast 492 566 33,400 3,600 Level FlightAware UK
05:16AM 48.5730 -6.1600 114° Southeast 521 600 34,900  Climbing FlightAware
05:16AM 48.5450 -6.0591 114° Southeast 494 568 33,400 -2,580 Descending FlightAware UK
05:17AM 48.5270 -5.9997 115° Southeast 494 568 33,400 3,900 Level FlightAware UK
05:17AM 48.5300 -6.0170 115° Southeast 521 600 34,900  Climbing FlightAware
05:17AM 48.5030 -5.9206 115° Southeast 496 571 33,400 -2,460 Descending FlightAware UK
05:17AM 48.4850 -5.8613 115° Southeast 496 571 33,400 3,420 Level FlightAware UK
05:18AM 48.4870 -5.8730 115° Southeast 520 598 34,900  Climbing FlightAware
05:18AM 48.4609 -5.7817 115° Southeast 494 568 33,400 -2,700 Descending FlightAware UK
05:18AM 48.4430 -5.7225 114° Southeast 496 571 33,400 3,720 Level FlightAware UK
05:18AM 48.4470 -5.7420 114° Southeast 519 597 34,900  Climbing FlightAware
05:19AM 48.4191 -5.6438 114° Southeast 496 571 33,400 -2,520 Descending FlightAware UK
05:19AM 48.4011 -5.5849 115° Southeast 494 568 33,400 3,300 Level FlightAware UK
05:19AM 48.4000 -5.5880 115° Southeast 519 597 34,900  Climbing FlightAware
05:19AM 48.3767 -5.5059 115° Southeast 492 566 33,400 -2,760 Descending FlightAware UK
05:20AM 48.3587 -5.4473 115° Southeast 492 566 33,400 3,600 Level FlightAware UK
05:20AM 48.3620 -5.4610 115° Southeast 519 597 34,900  Climbing FlightAware
05:20AM 48.3345 -5.3691 115° Southeast 492 566 33,400 -2,580 Descending FlightAware UK
05:20AM 48.3165 -5.3105 115° Southeast 490 564 33,400 3,180 Level FlightAware UK
05:20AM 48.3170 -5.3150 115° Southeast 519 597 34,900  Climbing FlightAware
05:21AM 48.2864 -5.2128 115° Southeast 490 564 33,400  Descending FlightAware UK
05:21AM 48.2760 -5.1830 115° Southeast 520 598 34,900  Climbing FlightAware
05:21AM 48.2498 -5.0955 115° Southeast 492 566 33,400 -2,700 Descending FlightAware UK
05:22AM 48.2314 -5.0369 115° Southeast 492 566 33,400 3,720 Level FlightAware UK
05:22AM 48.2340 -5.0470 115° Southeast 520 598 34,900  Climbing FlightAware
05:22AM 48.2068 -4.9586 115° Southeast 492 566 33,400  Descending FlightAware UK
05:22AM 48.1880 -4.9010 115° Southeast 522 601 34,900 1,320 Climbing FlightAware
05:23AM 48.1470 -4.7700 115° Southeast 521 600 34,900  Level FlightAware
05:24AM 48.1060 -4.6410 115° Southeast 521 600 34,900  Level FlightAware
05:25AM 48.0610 -4.4970 115° Southeast 521 600 34,900  Level FlightAware
05:25AM 48.0190 -4.3670 116° Southeast 521 600 34,900  Level FlightAware
05:26AM 47.9720 -4.2210 116° Southeast 520 598 34,900  Level FlightAware
05:27AM 47.9300 -4.0880 115° Southeast 520 598 34,900  Level FlightAware
05:27AM 47.8880 -3.9600 116° Southeast 520 598 34,900  Level FlightAware
05:28AM 47.8430 -3.8200 116° Southeast 519 597 34,900  Level FlightAware
05:29AM 47.8010 -3.6910 116° Southeast 518 596 34,900  Level FlightAware
05:29AM 47.7530 -3.5430 116° Southeast 519 597 34,900  Level FlightAware
05:30AM 47.7100 -3.4140 116° Southeast 518 596 34,900  Level FlightAware
05:31AM 47.6680 -3.2870 116° Southeast 519 597 34,900  Level FlightAware
05:32AM 47.6210 -3.1450 116° Southeast 519 597 34,900  Level FlightAware
05:32AM 47.5790 -3.0190 116° Southeast 519 597 34,900  Level FlightAware
05:33AM 47.5300 -2.8750 117° Southeast 520 598 34,900  Level FlightAware
05:34AM 47.4860 -2.7460 117° Southeast 521 600 34,900  Level FlightAware
05:34AM 47.4420 -2.6180 117° Southeast 521 600 34,900  Level FlightAware
05:35AM 47.3950 -2.4800 117° Southeast 521 600 34,900  Level FlightAware
05:36AM 47.3520 -2.3540 117° Southeast 521 600 34,900  Level FlightAware
05:36AM 47.3050 -2.2140 116° Southeast 521 600 34,900  Level FlightAware
05:37AM 47.2600 -2.0850 117° Southeast 522 601 34,900  Level FlightAware
05:38AM 47.2170 -1.9600 117° Southeast 523 602 34,900  Level FlightAware
05:39AM 47.1550 -1.7840 117° Southeast 524 603 34,900  Level FlightAware
05:39AM 47.1040 -1.6380 117° Southeast 524 603 34,900  Level FlightAware
05:40AM 47.0580 -1.5110 118° Southeast 524 603 34,900  Level FlightAware
05:41AM 47.0090 -1.3720 117° Southeast 524 603 34,900  Level FlightAware
05:42AM 46.9640 -1.2460 118° Southeast 525 604 34,900  Level FlightAware
05:42AM 46.9130 -1.1030 118° Southeast 526 605 34,900  Level FlightAware
05:43AM 46.8660 -0.9760 118° Southeast 529 609 34,900  Level FlightAware
05:44AM 46.8220 -0.8530 118° Southeast 529 609 34,900  Level FlightAware
05:44AM 46.7710 -0.7130 118° Southeast 528 608 34,900  Level FlightAware
05:45AM 46.7280 -0.5860 116° Southeast 531 611 34,900  Level FlightAware
05:46AM 46.6790 -0.4280 114° Southeast 531 611 34,900  Level FlightAware
05:47AM 46.5980 -0.1650 114° Southeast 534 615 34,900  Level FlightAware
05:48AM 46.5370 0.0380 114° Southeast 530 610 34,900  Level FlightAware
05:49AM 46.5020 0.1450 115° Southeast 531 611 34,900  Level FlightAware
05:49AM 46.4580 0.2790 115° Southeast 533 613 34,900  Level FlightAware
05:50AM 46.4000 0.4620 115° Southeast 533 613 34,900  Level FlightAware
05:51AM 46.3660 0.5730 114° Southeast 533 613 34,900  Level FlightAware
05:52AM 46.3240 0.7120 114° Southeast 533 613 34,900  Level FlightAware
05:53AM 46.2200 1.0180 116° Southeast 532 612 34,900  Level FlightAware
05:54AM 46.1790 1.1440 115° Southeast 532 612 34,900  Level FlightAware
05:55AM 46.1430 1.2530 115° Southeast 532 612 34,900  Level FlightAware
05:55AM 46.1080 1.3630 115° Southeast 532 612 34,900  Level FlightAware
05:56AM 46.0730 1.4720 115° Southeast 532 612 34,900  Level FlightAware
05:57AM 46.0010 1.6750 117° Southeast 534 615 34,900  Level FlightAware
05:58AM 45.9450 1.8420 116° Southeast 533 613 34,900  Level FlightAware
05:58AM 45.9030 1.9660 116° Southeast 531 611 34,900  Level FlightAware
05:59AM 45.8560 2.1030 116° Southeast 529 609 34,900  Level FlightAware
06:00AM 45.8100 2.2360 116° Southeast 528 608 34,900  Level FlightAware
06:00AM 45.7610 2.3690 118° Southeast 527 606 34,900  Level FlightAware
06:01AM 45.7160 2.4890 118° Southeast 528 608 34,900  Level FlightAware
06:02AM 45.6690 2.6160 118° Southeast 528 608 34,900  Level FlightAware
06:02AM 45.6150 2.7590 118° Southeast 530 610 34,900  Level FlightAware
06:03AM 45.5760 2.8650 118° Southeast 530 610 34,900  Level FlightAware
06:04AM 45.5370 2.9700 118° Southeast 530 610 34,900  Level FlightAware
06:04AM 45.4980 3.0750 118° Southeast 530 610 34,900  Level FlightAware
06:05AM 45.4590 3.1800 118° Southeast 530 610 34,900  Level FlightAware
06:07AM 45.3290 3.5140 119° Southeast 533 613 34,900  Level FlightAware
06:07AM 45.2840 3.6320 118° Southeast 533 613 34,900  Level FlightAware
06:08AM 45.2240 3.7850 119° Southeast 531 611 34,900  Level FlightAware
06:09AM 45.1760 3.9100 119° Southeast 532 612 34,900  Level FlightAware
06:09AM 45.1280 4.0310 119° Southeast 533 613 34,900  Level FlightAware
06:11AM 45.0450 4.2430 119° Southeast 34,900  Level FlightAware
06:11AM 44.9940 4.3720 119° Southeast 528 608 34,900  Level FlightAware
06:12AM 44.9480 4.4870 119° Southeast 528 608 34,900  Level FlightAware
06:13AM 44.8920 4.6270 119° Southeast 529 609 34,900  Level FlightAware
06:13AM 44.8450 4.7440 120° Southeast 529 609 34,900  Level FlightAware
06:14AM 44.7960 4.8640 120° Southeast 526 605 34,900  Level FlightAware
06:15AM 44.7350 4.9860 125° Southeast 514 592 34,900  Level FlightAware
06:16AM 44.6600 5.0970 134° Southeast 516 594 34,900  Level FlightAware
06:16AM 44.5940 5.1970 133° Southeast 517 595 34,900  Level FlightAware
06:17AM 44.5290 5.2940 133° Southeast 515 593 34,900  Level FlightAware
06:18AM 44.4570 5.4020 133° Southeast 515 593 34,900  Level FlightAware
06:18AM 44.3900 5.5020 133° Southeast 515 593 34,900  Level FlightAware
06:19AM 44.3310 5.6240 124° Southeast 524 603 34,900  Level FlightAware
06:20AM 44.2830 5.7440 119° Southeast 523 602 34,900  Level FlightAware
06:20AM 44.2360 5.8590 120° Southeast 522 601 34,900  Level FlightAware
06:21AM 44.1800 5.9940 120° Southeast 520 598 34,900  Level FlightAware
06:22AM 44.1340 6.1050 120° Southeast 518 596 34,900  Level FlightAware
06:23AM 44.0800 6.2350 120° Southeast 518 596 34,900  Level FlightAware
06:23AM 44.0320 6.3480 121° Southeast 515 593 34,900  Level FlightAware
06:24AM 43.9790 6.4740 120° Southeast 516 594 34,900  Level FlightAware
06:25AM 43.9380 6.5700 121° Southeast 516 594 34,900  Level FlightAware
06:25AM 43.8870 6.6890 121° Southeast 514 592 34,900  Level FlightAware
06:26AM 43.8210 6.8410 121° Southeast 518 596 34,900  Level FlightAware
06:27AM 43.7710 6.9560 121° Southeast 518 596 34,900  Level FlightAware
06:27AM 43.7150 7.0830 121° Southeast 517 595 34,900  Level FlightAware
06:28AM 43.6700 7.1850 121° Southeast 517 595 34,900  Level FlightAware
06:29AM 43.6150 7.3060 122° Southeast 517 595 34,900  Level FlightAware
06:31AM 43.5363 7.6206 109° East  Level Estimated
06:32AM 43.4900 7.8034 109° East  Level Estimated
06:32AM 43.3630 7.7230 109° East 517 595 34,900  Level FlightAware
06:32AM 43.2990 7.8230 131° Southeast 517 595 34,900  Level FlightAware
06:33AM 43.2180 7.9450 132° Southeast 516 594 34,900  Level FlightAware
06:34AM 43.1550 8.0400 132° Southeast 516 594 34,900  Level FlightAware
06:34AM 43.0890 8.1380 133° Southeast 515 593 34,900  Level FlightAware
06:35AM 43.0150 8.2500 132° Southeast 514 592 34,900  Level FlightAware
06:36AM 42.9530 8.3450 132° Southeast 514 592 34,900  Level FlightAware
06:37AM 42.8790 8.4500 134° Southeast 512 589 34,900  Level FlightAware
06:37AM 42.8100 8.5290 140° Southeast 510 587 34,900  Level FlightAware
06:38AM 42.7390 8.6090 140° Southeast 506 582 34,900  Level FlightAware
06:39AM 42.6550 8.7020 141° Southeast 506 582 34,900  Level FlightAware
06:39AM 42.5820 8.7840 140° Southeast 506 582 34,900  Level FlightAware
06:40AM 42.5000 8.8760 140° Southeast 507 583 34,900  Level FlightAware
06:41AM 42.4250 8.9580 141° Southeast 507 583 34,900  Level FlightAware
06:41AM 42.3540 9.0380 140° Southeast 508 585 34,900  Level FlightAware
06:42AM 42.2850 9.1380 133° Southeast 515 593 34,900  Level FlightAware
06:43AM 42.2090 9.2880 124° Southeast 524 603 34,900  Level FlightAware
06:44AM 42.1650 9.4100 116° Southeast 526 605 34,900  Level FlightAware
06:44AM 42.1190 9.5500 114° Southeast 528 608 34,900 180 Level FlightAware
06:45AM 42.0800 9.6690 114° Southeast 523 602 35,200 420 Climbing FlightAware
06:46AM 42.0400 9.7900 114° Southeast 524 603 35,500 480 Climbing FlightAware
06:47AM 41.9960 9.9210 114° Southeast 523 602 35,900 420 Climbing FlightAware
06:47AM 41.9550 10.0420 114° Southeast 525 604 36,200 420 Climbing FlightAware
06:48AM 41.9000 10.2060 114° Southeast 520 598 36,600 480 Climbing FlightAware
06:49AM 41.8540 10.3410 115° Southeast 520 598 36,900 180 Climbing FlightAware
06:50AM 41.8140 10.4570 115° Southeast 523 602 36,900  Level FlightAware
06:50AM 41.7690 10.5920 114° Southeast 524 603 36,900  Level FlightAware
06:53AM 41.6674 10.9862 109° East  Level Estimated
06:54AM 41.6211 11.1637 109° East  Level Estimated
06:55AM 41.5746 11.3409 109° East  Level Estimated
06:55AM 41.4760 11.4340 109° East 531 611 36,900  Level FlightAware
06:57AM 41.3530 11.7830 115° Southeast 530 610 36,900  Level FlightAware
06:58AM 41.3100 11.9020 116° Southeast 530 610 36,900  Level FlightAware
06:58AM 41.2730 12.0050 116° Southeast 529 609 36,900  Level FlightAware
06:59AM 41.2200 12.1520 116° Southeast 530 610 36,900  Level FlightAware
07:00AM 41.1780 12.2690 115° Southeast 531 611 36,900  Level FlightAware
07:01AM 41.1310 12.3980 116° Southeast 529 609 36,900  Level FlightAware
07:01AM 41.0860 12.5170 117° Southeast 527 606 36,900  Level FlightAware
07:02AM 41.0330 12.6440 119° Southeast 525 604 36,900  Level FlightAware
07:03AM 40.9860 12.7560 119° Southeast 523 602 36,900  Level FlightAware
07:03AM 40.9390 12.8660 119° Southeast 523 602 36,900  Level FlightAware
07:04AM 40.8690 13.0300 119° Southeast 523 602 36,900  Level FlightAware
07:05AM 40.8280 13.1260 119° Southeast 524 603 36,900  Level FlightAware
07:06AM 40.7670 13.2700 119° Southeast 525 604 36,900  Level FlightAware
07:06AM 40.7200 13.3780 120° Southeast 524 603 36,900  Level FlightAware
07:07AM 40.6630 13.5110 119° Southeast 522 601 36,900  Level FlightAware
07:08AM 40.6150 13.6220 120° Southeast 521 600 36,900  Level FlightAware
07:08AM 40.5660 13.7320 120° Southeast 521 600 36,900  Level FlightAware
07:09AM 40.5130 13.8550 120° Southeast 522 601 36,900  Level FlightAware
07:10AM 40.4630 13.9690 120° Southeast 521 600 36,900  Level FlightAware
07:11AM 40.4100 14.0900 120° Southeast 521 600 36,900  Level FlightAware
07:11AM 40.3610 14.1990 121° Southeast 523 602 36,900  Level FlightAware
07:12AM 40.3130 14.3070 120° Southeast 522 601 36,900  Level FlightAware
07:13AM 40.2570 14.4350 120° Southeast 522 601 36,900  Level FlightAware
07:13AM 40.2080 14.5430 121° Southeast 519 597 36,900  Level FlightAware
07:14AM 40.1550 14.6620 120° Southeast 518 596 36,900  Level FlightAware
07:15AM 40.1060 14.7700 121° Southeast 517 595 36,900  Level FlightAware
07:15AM 40.0580 14.8770 120° Southeast 515 593 36,900  Level FlightAware
07:16AM 40.0090 14.9840 121° Southeast 513 590 36,900  Level FlightAware
07:17AM 39.9530 15.1080 120° Southeast 513 590 36,900  Level FlightAware
07:18AM 39.9050 15.2120 121° Southeast 513 590 36,900  Level FlightAware
07:18AM 39.8510 15.3300 121° Southeast 512 589 36,900  Level FlightAware
07:19AM 39.8030 15.4330 121° Southeast 512 589 36,900  Level FlightAware
07:20AM 39.7540 15.5390 121° Southeast 512 589 36,900  Level FlightAware
07:20AM 39.7080 15.6380 121° Southeast 512 589 36,900  Level FlightAware
07:21AM 39.6480 15.7680 121° Southeast 512 589 36,900  Level FlightAware
07:22AM 39.5950 15.8810 121° Southeast 513 590 36,900  Level FlightAware
07:22AM 39.5480 15.9880 120° Southeast 514 592 36,900  Level FlightAware
07:23AM 39.5040 16.1210 113° Southeast 516 594 36,900  Level FlightAware
07:24AM 39.4680 16.2340 112° Southeast 518 596 36,900  Level FlightAware
07:25AM 39.4310 16.3500 112° Southeast 519 597 36,900  Level FlightAware
07:25AM 39.3910 16.4770 112° Southeast 518 596 36,900  Level FlightAware
07:26AM 39.3550 16.5890 113° Southeast 517 595 36,900  Level FlightAware
07:27AM 39.3130 16.7200 112° Southeast 519 597 36,900  Level FlightAware
07:27AM 39.2760 16.8340 113° Southeast 519 597 36,900  Level FlightAware
07:28AM 39.2380 16.9500 113° Southeast 518 596 36,900  Level FlightAware
07:29AM 39.2090 17.0390 113° Southeast 518 596 36,900  Level FlightAware
07:29AM 39.1690 17.1600 113° Southeast 518 596 36,900  Level FlightAware
07:30AM 39.1260 17.2890 113° Southeast 518 596 36,900  Level FlightAware
07:31AM 39.0890 17.4030 113° Southeast 517 595 36,900  Level FlightAware
07:32AM 39.0500 17.5180 114° Southeast 516 594 36,900  Level FlightAware
07:32AM 39.0120 17.6330 113° Southeast 516 594 36,900  Level FlightAware
07:33AM 38.9590 17.7910 113° Southeast 514 592 36,900  Level FlightAware
07:34AM 38.9180 17.9130 113° Southeast 513 590 36,900  Level FlightAware
07:35AM 38.8770 18.0320 114° Southeast 512 589 36,900  Level FlightAware
07:35AM 38.8330 18.1620 113° Southeast 510 587 36,900  Level FlightAware
07:36AM 38.8000 18.2570 114° Southeast 508 585 36,900  Level FlightAware
07:37AM 38.7560 18.3860 114° Southeast 506 582 36,900  Level FlightAware
07:37AM 38.7290 18.4660 113° Southeast 505 581 36,900  Level FlightAware
07:38AM 38.6810 18.6120 113° Southeast 502 578 36,900  Level FlightAware
07:39AM 38.6460 18.7300 111° Southeast 500 575 36,900  Level FlightAware
07:39AM 38.6150 18.8340 111° Southeast 499 574 36,900  Level FlightAware
07:40AM 38.5800 18.9530 111° Southeast 498 573 36,900  Level FlightAware
07:41AM 38.5550 19.0400 110° East 498 573 36,900  Level FlightAware
07:42AM 38.5280 19.1340 110° East 498 573 36,900  Level FlightAware
07:42AM 38.4760 19.3040 111° Southeast 497 572 36,900  Level FlightAware
07:43AM 38.4430 19.4130 111° Southeast 497 572 36,900  Level FlightAware
07:44AM 38.4090 19.5280 111° Southeast 497 572 36,900  Level FlightAware
07:44AM 38.3730 19.6470 111° Southeast 498 573 36,900  Level FlightAware
07:45AM 38.3400 19.7530 112° Southeast 496 571 36,900  Level FlightAware
07:46AM 38.2970 19.8930 111° Southeast 494 568 36,900  Level FlightAware
07:46AM 38.2680 19.9880 111° Southeast 492 566 36,900  Level FlightAware
07:47AM 38.2240 20.1310 111° Southeast 492 566 36,900  Level FlightAware
07:48AM 38.1880 20.2480 111° Southeast 492 566 36,900  Level FlightAware
07:49AM 38.1540 20.3560 112° Southeast 491 565 36,900  Level FlightAware
07:49AM 38.1230 20.4590 111° Southeast 491 565 36,900  Level FlightAware
07:50AM 38.0870 20.5700 112° Southeast 492 566 36,900  Level FlightAware
07:51AM 38.0460 20.7000 112° Southeast 491 565 36,900  Level FlightAware
07:51AM 38.0220 20.7780 111° Southeast 490 564 36,900  Level FlightAware
07:52AM 37.9770 20.9190 112° Southeast 490 564 36,900  Level FlightAware
07:53AM 37.9430 21.0290 111° Southeast 489 563 36,900  Level FlightAware
07:54AM 37.9050 21.1440 113° Southeast 489 563 36,900  Level FlightAware
07:54AM 37.8700 21.2540 112° Southeast 488 562 36,900  Level FlightAware
07:55AM 37.8330 21.3680 112° Southeast 485 558 36,900  Level FlightAware
07:56AM 37.7990 21.4730 112° Southeast 483 556 36,900  Level FlightAware
07:56AM 37.7610 21.5900 112° Southeast 481 554 36,900  Level FlightAware
07:57AM 37.7270 21.6920 113° Southeast 477 549 36,900  Level FlightAware
07:58AM 37.6880 21.8100 113° Southeast 474 545 36,900  Level FlightAware
07:58AM 37.6550 21.9120 112° Southeast 474 545 36,900  Level FlightAware
07:59AM 37.6210 22.0150 113° Southeast 478 550 36,900  Level FlightAware
08:00AM 37.5810 22.1350 113° Southeast 482 555 36,900  Level FlightAware
08:01AM 37.5470 22.2350 113° Southeast 483 556 36,900  Level FlightAware
08:01AM 37.5130 22.3390 112° Southeast 484 557 36,900  Level FlightAware
08:02AM 37.4740 22.4550 113° Southeast 481 554 36,900  Level FlightAware
08:03AM 37.4390 22.5590 113° Southeast 482 555 36,900  Level FlightAware
08:03AM 37.3980 22.6780 113° Southeast 482 555 36,900  Level FlightAware
08:04AM 37.3640 22.7810 113° Southeast 482 555 36,900  Level FlightAware
08:05AM 37.3290 22.8820 114° Southeast 482 555 36,900  Level FlightAware
08:05AM 37.2930 22.9880 113° Southeast 482 555 36,900  Level FlightAware
08:06AM 37.2540 23.1010 113° Southeast 479 551 36,900  Level FlightAware
08:07AM 37.2140 23.2160 114° Southeast 477 549 36,900  Level FlightAware
08:08AM 37.1790 23.3170 113° Southeast 478 550 36,900  Level FlightAware
08:08AM 37.1450 23.4160 113° Southeast 479 551 36,900  Level FlightAware
08:09AM 37.1080 23.5210 114° Southeast 480 552 36,900  Level FlightAware
08:10AM 37.0680 23.6330 114° Southeast 480 552 36,900  Level FlightAware
08:10AM 37.0320 23.7360 114° Southeast 479 551 36,900  Level FlightAware
08:11AM 36.9920 23.8490 114° Southeast 479 551 36,900  Level FlightAware
08:12AM 36.9560 23.9500 114° Southeast 479 551 36,900  Level FlightAware
08:12AM 36.9140 24.0660 114° Southeast 479 551 36,900  Level FlightAware
08:13AM 36.8770 24.1680 114° Southeast 478 550 36,900  Level FlightAware
08:14AM 36.8410 24.2700 114° Southeast 479 551 36,900  Level FlightAware
08:15AM 36.8010 24.3790 115° Southeast 479 551 36,900  Level FlightAware
08:15AM 36.7650 24.4790 114° Southeast 479 551 36,900  Level FlightAware
08:16AM 36.7280 24.5810 114° Southeast 481 554 36,900  Level FlightAware
08:17AM 36.6860 24.6980 114° Southeast 479 551 36,900  Level FlightAware
08:17AM 36.6500 24.7960 115° Southeast 479 551 36,900  Level FlightAware
08:18AM 36.6090 24.9070 115° Southeast 477 549 36,900  Level FlightAware
08:19AM 36.5720 25.0070 115° Southeast 478 550 36,900  Level FlightAware
08:19AM 36.5360 25.1050 115° Southeast 478 550 36,900  Level FlightAware
08:20AM 36.4930 25.2230 114° Southeast 479 551 36,900  Level FlightAware
08:21AM 36.4560 25.3210 115° Southeast 480 552 36,900  Level FlightAware
08:21AM 36.4230 25.4120 114° Southeast 481 554 36,900  Level FlightAware
08:22AM 36.3930 25.4980 113° Southeast 481 554 36,900  Level FlightAware
08:23AM 36.3440 25.6230 116° Southeast 484 557 36,900  Level FlightAware
08:24AM 36.2960 25.7500 115° Southeast 484 557 36,900  Level FlightAware
08:25AM 36.2480 25.8810 114° Southeast 484 557 36,900  Level FlightAware
08:25AM 36.2170 25.9670 114° Southeast 484 557 36,900  Level FlightAware
08:26AM 36.1740 26.0730 117° Southeast 484 557 36,900  Level FlightAware
08:27AM 36.1290 26.1930 115° Southeast 484 557 36,900  Level FlightAware
08:27AM 36.0930 26.2880 115° Southeast 485 558 36,900  Level FlightAware
08:28AM 36.0470 26.4070 116° Southeast 485 558 36,900  Level FlightAware
08:29AM 36.0150 26.4930 115° Southeast 485 558 36,900  Level FlightAware
08:29AM 35.9830 26.5780 115° Southeast 485 558 36,900  Level FlightAware
08:30AM 35.9510 26.6640 115° Southeast 485 558 36,900  Level FlightAware
08:31AM 35.9180 26.7490 116° Southeast 485 558 36,900  Level FlightAware
08:31AM 35.8860 26.8340 115° Southeast 485 558 36,900  Level FlightAware
08:32AM 35.8010 27.0450 116° Southeast 485 558 36,900  Level FlightAware
08:33AM 35.7690 27.1300 115° Southeast 485 558 36,900  Level FlightAware
08:34AM 35.7370 27.2160 115° Southeast 485 558 36,900  Level FlightAware
08:34AM 35.7050 27.3010 115° Southeast 485 558 36,900  Level FlightAware
08:35AM 35.6640 27.4070 115° Southeast 485 558 36,900  Level FlightAware
08:36AM 35.6320 27.4920 115° Southeast 485 558 36,900  Level FlightAware
08:36AM 35.6000 27.5770 115° Southeast 485 558 36,900  Level FlightAware
08:37AM 35.5680 27.6620 115° Southeast 485 558 36,900  Level FlightAware
08:38AM 35.5350 27.7470 115° Southeast 485 558 36,900  Level FlightAware
08:38AM 35.4360 27.9690 119° Southeast 487 560 36,900  Level FlightAware
08:39AM 35.3810 28.1060 116° Southeast 491 565 36,900  Level FlightAware
08:40AM 35.3420 28.2040 116° Southeast 492 566 36,900  Level FlightAware
08:41AM 35.2940 28.3220 116° Southeast 492 566 36,900  Level FlightAware
08:41AM 35.2540 28.4220 116° Southeast 493 567 36,900  Level FlightAware
08:42AM 35.2150 28.5170 117° Southeast 494 568 36,900  Level FlightAware
08:43AM 35.1680 28.6330 116° Southeast 495 570 36,900  Level FlightAware
08:43AM 35.1310 28.7250 116° Southeast 491 565 36,900  Level FlightAware
08:44AM 35.0940 28.8140 117° Southeast 490 564 36,900  Level FlightAware
08:45AM 35.0410 28.9430 117° Southeast 494 568 36,900  Level FlightAware
08:46AM 35.0020 29.0370 117° Southeast 489 563 36,900  Level FlightAware
08:46AM 34.9530 29.1550 117° Southeast 493 567 36,900  Level FlightAware
08:47AM 34.9280 29.2160 117° Southeast 488 562 36,900  Level FlightAware
08:48AM 34.8680 29.3610 117° Southeast 494 568 36,900  Level FlightAware
08:48AM 34.8280 29.4570 117° Southeast 493 567 36,900  Level FlightAware
08:49AM 34.7840 29.5610 117° Southeast 493 567 36,900  Level FlightAware
08:50AM 34.7370 29.6740 117° Southeast 495 570 36,900  Level FlightAware
08:50AM 34.7020 29.7570 117° Southeast 496 571 36,900  Level FlightAware
08:51AM 34.6570 29.8610 118° Southeast 494 568 36,900  Level FlightAware
08:52AM 34.6140 29.9560 119° Southeast 494 568 36,900  Level FlightAware
08:52AM 34.5650 30.0550 121° Southeast 494 568 36,900  Level FlightAware
08:53AM 34.5060 30.1790 120° Southeast 494 568 36,900  Level FlightAware
08:54AM 34.4610 30.2740 120° Southeast 496 571 36,900  Level FlightAware
08:55AM 34.4130 30.3750 120° Southeast 496 571 36,900  Level FlightAware
08:55AM 34.3600 30.4860 120° Southeast 492 566 36,900  Level FlightAware
08:57AM 34.2690 30.6780 120° Southeast 492 566 36,900  Level FlightAware
08:57AM 34.2210 30.7790 120° Southeast 495 570 36,900  Level FlightAware
08:58AM 34.1740 30.8760 120° Southeast 495 570 36,900  Level FlightAware
08:59AM 34.1120 31.0070 120° Southeast 496 571 36,900  Level FlightAware
09:00AM 34.0570 31.1180 121° Southeast 496 571 36,900  Level FlightAware
09:00AM 34.0090 31.2150 121° Southeast 493 567 36,900  Level FlightAware
09:01AM 33.9640 31.3090 120° Southeast 493 567 36,900  Level FlightAware
09:02AM 33.9100 31.4190 121° Southeast 493 567 36,900  Level FlightAware
09:03AM 33.8630 31.5160 120° Southeast 493 567 36,900  Level FlightAware
09:03AM 33.8090 31.6240 121° Southeast 493 567 36,900  Level FlightAware
09:04AM 33.7680 31.7090 120° Southeast 493 567 36,900  Level FlightAware
09:05AM 33.6660 31.9130 121° Southeast 493 567 36,900  Level FlightAware
09:06AM 33.6230 32.0010 120° Southeast 497 572 36,900  Level FlightAware
09:07AM 33.5650 32.1160 121° Southeast 498 573 36,900  Level FlightAware
09:07AM 33.5170 32.2110 121° Southeast 497 572 36,900  Level FlightAware
09:08AM 33.4640 32.3180 121° Southeast 498 573 36,900  Level FlightAware
09:09AM 33.4180 32.4100 121° Southeast 498 573 36,900  Level FlightAware
09:10AM 33.3690 32.5060 121° Southeast 499 574 36,900  Level FlightAware
09:10AM 33.3170 32.6080 121° Southeast 499 574 36,900 -1,020 Level FlightAware
09:11AM 33.2680 32.7050 121° Southeast 503 579 35,500 -1,920 Descending FlightAware
09:12AM 33.2060 32.8280 121° Southeast 505 581 33,900 -2,760 Descending FlightAware
09:13AM 33.1040 33.0250 122° Southeast 487 560 29,400 -2,820 Descending FlightAware
09:14AM 33.0550 33.1210 121° Southeast 473 544 28,100 -1,320 Descending FlightAware
09:15AM 33.0030 33.2210 122° Southeast 448 516 27,500 -540 Descending FlightAware
09:15AM 32.9500 33.3230 122° Southeast 425 489 27,300 -480 Descending FlightAware
09:16AM 32.9260 33.3700 121° Southeast 415 478 27,000 -1,320 Descending FlightAware
09:17AM 32.8760 33.4660 122° Southeast 411 473 25,700 -1,800 Descending FlightAware
09:17AM 32.8300 33.5530 122° Southeast 404 465 24,200 -1,980 Descending FlightAware
09:18AM 32.7900 33.6300 122° Southeast 392 451 22,900 -2,100 Descending FlightAware
09:19AM 32.7520 33.7010 122° Southeast 385 443 21,400 -2,400 Descending FlightAware
09:20AM 32.7100 33.7800 122° Southeast 374 430 19,500 -2,340 Descending FlightAware
09:20AM 32.6740 33.8490 122° Southeast 356 410 18,100 -1,920 Descending FlightAware
09:21AM 32.6400 33.9130 122° Southeast 333 383 17,000 -1,560 Descending FlightAware
09:22AM 32.6020 33.9780 125° Southeast 297 342 15,900 -1,440 Descending FlightAware
09:22AM 32.5880 33.9870 152° Southeast 283 326 15,600 -600 Descending FlightAware
09:22AM 32.5460 34.0020 163° South 278 320 15,400 -1,920 Descending FlightAware
09:23AM 32.4870 34.0110 173° South 268 308 13,100 -1,920 Descending FlightAware
09:24AM 32.4330 34.0220 170° South 266 306 12,600 -1,680 Descending FlightAware
09:24AM 32.4010 34.0340 162° South 273 314 11,200 -2,400 Descending FlightAware
09:25AM 32.3770 34.0700 128° Southeast 285 328 10,400 -1,620 Descending FlightAware
09:25AM 32.3590 34.1120 117° Southeast 285 328 9,600 -1,560 Descending FlightAware
09:26AM 32.3480 34.1500 109° East 285 328 9,000 -1,320 Descending FlightAware
09:26AM 32.3380 34.1840 109° East 284 327 8,500 -1,200 Descending FlightAware
09:27AM 32.3300 34.2120 109° East 283 326 8,100 -720 Descending FlightAware
09:27AM 32.3140 34.2670 109° East 281 323 7,800 -480 Descending FlightAware
09:30AM 32.1476 34.6024 140° Southeast  Level FlightAware Approximate
09:31AM 32.0683 34.7376 115° Southeast  Level FlightAware Approximate
09:32AM 32.0000 34.8667 125° Southeast  Level FlightAware Approximate
09:33AM 32.0095 34.8769 125° Southeast  Level Estimated
09:34AM 32.0095 34.8769 125° Southeast  Level Estimated
09:34AM 32.0990 34.7400 125° Southeast 221 254 5,100  Level FlightAware
09:34AM 32.0870 34.7600 125° Southeast 212 244 5,100  Level FlightAware
09:34AM 32.0780 34.7710 134° Southeast 207 238 5,100 -360 Level FlightAware
09:35AM 32.0600 34.7840 149° Southeast 201 231 4,900 -660 Descending FlightAware
09:35AM 32.0260 34.8080 149° Southeast 201 231 4,400 -900 Descending FlightAware
09:36AM 32.0430 34.7960 329° Northwest 195 224 3,600 -1,080 Descending FlightAware
09:37AM 31.9990 34.8830 121° Southeast 194 223 3,000 -1,200 Descending FlightAware
09:37AM 32.0000 34.8950 84° East 193 222 2,700 -480 Descending FlightAware
09:37AM 32.0020 34.9200 85° East 193 222 2,700 -720 Level FlightAware
09:37AM 32.0000 34.8950 265° West 194 223 2,300 -720 Descending FlightAware
09:38AM 32.0020 34.9200 85° East 194 223 2,300  Level FlightAware
09:41AM 32.0095 34.8769 125° Southeast  Level Estimated